sensor_id;sensor_type;location;lat;lon;timestamp;temperature;humidity
827;DHT22;395;48.132;11.608;2022-11-12T00:02:20;9.90;8.00
827;DHT22;395;48.132;11.608;2022-11-12T00:04:46;9.90;7.90
827;DHT22;395;48.132;11.608;2022-11-12T00:07:12;9.90;7.80
827;DHT22;395;48.132;11.608;2022-11-12T00:09:37;9.80;7.70
827;DHT22;395;48.132;11.608;2022-11-12T00:12:03;9.80;7.70
827;DHT22;395;48.132;11.608;2022-11-12T00:14:29;9.80;7.80
827;DHT22;395;48.132;11.608;2022-11-12T00:16:54;9.80;7.70
827;DHT22;395;48.132;11.608;2022-11-12T00:19:20;9.80;7.40
827;DHT22;395;48.132;11.608;2022-11-12T00:21:46;9.80;7.40
827;DHT22;395;48.132;11.608;2022-11-12T00:24:11;9.80;7.30
827;DHT22;395;48.132;11.608;2022-11-12T00:26:37;9.70;7.00
827;DHT22;395;48.132;11.608;2022-11-12T00:29:02;9.70;7.00
827;DHT22;395;48.132;11.608;2022-11-12T00:31:28;9.70;6.90
827;DHT22;395;48.132;11.608;2022-11-12T00:33:54;9.70;6.70
827;DHT22;395;48.132;11.608;2022-11-12T00:36:19;9.60;6.60
827;DHT22;395;48.132;11.608;2022-11-12T00:38:45;9.60;6.60
827;DHT22;395;48.132;11.608;2022-11-12T00:41:11;9.60;6.40
827;DHT22;395;48.132;11.608;2022-11-12T00:43:36;9.60;6.30
827;DHT22;395;48.132;11.608;2022-11-12T00:46:02;9.50;6.20
827;DHT22;395;48.132;11.608;2022-11-12T00:48:28;9.50;6.10
827;DHT22;395;48.132;11.608;2022-11-12T00:51:04;9.50;6.10
827;DHT22;395;48.132;11.608;2022-11-12T00:53:30;9.50;6.10
827;DHT22;395;48.132;11.608;2022-11-12T00:56:03;9.40;6.10
827;DHT22;395;48.132;11.608;2022-11-12T00:58:33;9.40;6.00
827;DHT22;395;48.132;11.608;2022-11-12T01:01:11;9.40;6.20
827;DHT22;395;48.132;11.608;2022-11-12T01:03:38;9.40;6.30
827;DHT22;395;48.132;11.608;2022-11-12T01:06:15;9.40;6.40
827;DHT22;395;48.132;11.608;2022-11-12T01:08:42;9.40;6.60
827;DHT22;395;48.132;11.608;2022-11-12T01:11:10;9.40;6.70
827;DHT22;395;48.132;11.608;2022-11-12T01:13:38;9.40;7.00
827;DHT22;395;48.132;11.608;2022-11-12T01:16:10;9.40;7.10
827;DHT22;395;48.132;11.608;2022-11-12T01:18:37;9.40;7.30
827;DHT22;395;48.132;11.608;2022-11-12T01:21:04;9.40;7.60
827;DHT22;395;48.132;11.608;2022-11-12T01:23:37;9.40;7.60
827;DHT22;395;48.132;11.608;2022-11-12T01:26:05;9.40;7.60
827;DHT22;395;48.132;11.608;2022-11-12T01:28:31;9.40;7.80
827;DHT22;395;48.132;11.608;2022-11-12T01:30:57;9.40;7.90
827;DHT22;395;48.132;11.608;2022-11-12T01:33:23;9.40;8.00
827;DHT22;395;48.132;11.608;2022-11-12T01:35:49;9.40;8.10
827;DHT22;395;48.132;11.608;2022-11-12T01:38:14;9.50;8.20
827;DHT22;395;48.132;11.608;2022-11-12T01:40:40;9.50;8.30
827;DHT22;395;48.132;11.608;2022-11-12T01:43:11;9.50;8.40
827;DHT22;395;48.132;11.608;2022-11-12T01:45:40;9.50;8.50
827;DHT22;395;48.132;11.608;2022-11-12T01:50:56;9.50;8.50
827;DHT22;395;48.132;11.608;2022-11-12T01:53:25;9.50;8.40
827;DHT22;395;48.132;11.608;2022-11-12T01:55:53;9.50;8.50
827;DHT22;395;48.132;11.608;2022-11-12T01:58:23;9.60;8.60
827;DHT22;395;48.132;11.608;2022-11-12T02:00:50;9.50;8.70
827;DHT22;395;48.132;11.608;2022-11-12T02:03:21;9.60;8.80
827;DHT22;395;48.132;11.608;2022-11-12T02:05:52;9.60;8.70
827;DHT22;395;48.132;11.608;2022-11-12T02:08:20;9.60;8.60
827;DHT22;395;48.132;11.608;2022-11-12T02:10:46;9.60;8.50
827;DHT22;395;48.132;11.608;2022-11-12T02:13:12;9.60;8.50
827;DHT22;395;48.132;11.608;2022-11-12T02:15:57;9.70;8.60
827;DHT22;395;48.132;11.608;2022-11-12T02:18:23;9.60;8.50
827;DHT22;395;48.132;11.608;2022-11-12T02:20:57;9.60;8.30
827;DHT22;395;48.132;11.608;2022-11-12T02:23:23;9.60;8.30
827;DHT22;395;48.132;11.608;2022-11-12T02:25:49;9.70;8.40
827;DHT22;395;48.132;11.608;2022-11-12T02:28:16;9.60;8.40
827;DHT22;395;48.132;11.608;2022-11-12T02:30:47;9.70;8.50
827;DHT22;395;48.132;11.608;2022-11-12T02:33:14;9.70;8.50
827;DHT22;395;48.132;11.608;2022-11-12T02:35:39;9.70;8.50
827;DHT22;395;48.132;11.608;2022-11-12T02:38:06;9.70;8.40
827;DHT22;395;48.132;11.608;2022-11-12T02:40:32;9.70;8.40
827;DHT22;395;48.132;11.608;2022-11-12T02:42:58;9.70;8.30
827;DHT22;395;48.132;11.608;2022-11-12T02:45:25;9.70;8.20
827;DHT22;395;48.132;11.608;2022-11-12T02:47:50;9.70;8.40
827;DHT22;395;48.132;11.608;2022-11-12T02:50:16;9.70;8.40
827;DHT22;395;48.132;11.608;2022-11-12T02:52:42;9.70;8.30
827;DHT22;395;48.132;11.608;2022-11-12T02:55:09;9.70;8.10
827;DHT22;395;48.132;11.608;2022-11-12T02:57:36;9.70;7.90
827;DHT22;395;48.132;11.608;2022-11-12T03:00:07;9.70;7.80
827;DHT22;395;48.132;11.608;2022-11-12T03:02:33;9.70;7.80
827;DHT22;395;48.132;11.608;2022-11-12T03:04:59;9.60;7.60
827;DHT22;395;48.132;11.608;2022-11-12T03:07:25;9.60;7.20
827;DHT22;395;48.132;11.608;2022-11-12T03:09:51;9.60;6.90
827;DHT22;395;48.132;11.608;2022-11-12T03:12:16;9.60;6.80
827;DHT22;395;48.132;11.608;2022-11-12T03:14:42;9.50;6.20
827;DHT22;395;48.132;11.608;2022-11-12T03:17:08;9.40;6.00
827;DHT22;395;48.132;11.608;2022-11-12T03:19:33;9.40;6.00
827;DHT22;395;48.132;11.608;2022-11-12T03:21:59;9.40;6.00
827;DHT22;395;48.132;11.608;2022-11-12T03:24:25;9.30;5.80
827;DHT22;395;48.132;11.608;2022-11-12T03:26:50;9.30;5.60
827;DHT22;395;48.132;11.608;2022-11-12T03:29:16;9.30;5.50
827;DHT22;395;48.132;11.608;2022-11-12T03:31:42;9.20;5.30
827;DHT22;395;48.132;11.608;2022-11-12T03:34:09;9.20;5.10
827;DHT22;395;48.132;11.608;2022-11-12T03:36:34;9.20;4.80
827;DHT22;395;48.132;11.608;2022-11-12T03:39:00;9.10;4.70
827;DHT22;395;48.132;11.608;2022-11-12T03:41:26;9.10;4.70
827;DHT22;395;48.132;11.608;2022-11-12T03:43:51;9.10;4.90
827;DHT22;395;48.132;11.608;2022-11-12T03:46:17;9.00;5.30
827;DHT22;395;48.132;11.608;2022-11-12T03:48:42;9.00;4.90
827;DHT22;395;48.132;11.608;2022-11-12T03:51:08;9.00;4.50
827;DHT22;395;48.132;11.608;2022-11-12T03:53:36;9.00;4.30
827;DHT22;395;48.132;11.608;2022-11-12T03:56:02;8.90;4.20
827;DHT22;395;48.132;11.608;2022-11-12T03:58:27;8.90;4.80
827;DHT22;395;48.132;11.608;2022-11-12T04:00:53;8.90;5.10
827;DHT22;395;48.132;11.608;2022-11-12T04:03:19;9.00;4.80
827;DHT22;395;48.132;11.608;2022-11-12T04:05:44;8.80;4.50
827;DHT22;395;48.132;11.608;2022-11-12T04:08:28;8.80;4.00
827;DHT22;395;48.132;11.608;2022-11-12T04:11:01;8.70;4.40
827;DHT22;395;48.132;11.608;2022-11-12T04:13:28;8.70;4.60
827;DHT22;395;48.132;11.608;2022-11-12T04:16:01;8.70;4.70
827;DHT22;395;48.132;11.608;2022-11-12T04:18:48;8.70;4.40
827;DHT22;395;48.132;11.608;2022-11-12T04:21:47;8.70;4.30
827;DHT22;395;48.132;11.608;2022-11-12T04:24:17;8.60;4.00
827;DHT22;395;48.132;11.608;2022-11-12T04:27:01;8.60;3.90
827;DHT22;395;48.132;11.608;2022-11-12T04:29:27;8.60;4.00
827;DHT22;395;48.132;11.608;2022-11-12T04:32:11;8.60;3.70
827;DHT22;395;48.132;11.608;2022-11-12T04:34:37;8.60;3.50
827;DHT22;395;48.132;11.608;2022-11-12T04:37:04;8.50;3.30
827;DHT22;395;48.132;11.608;2022-11-12T04:39:30;8.50;3.90
827;DHT22;395;48.132;11.608;2022-11-12T04:41:56;8.50;4.50
827;DHT22;395;48.132;11.608;2022-11-12T04:44:40;8.50;4.30
827;DHT22;395;48.132;11.608;2022-11-12T04:47:30;8.60;4.20
827;DHT22;395;48.132;11.608;2022-11-12T04:49:56;8.50;4.10
827;DHT22;395;48.132;11.608;2022-11-12T04:52:22;8.50;4.20
827;DHT22;395;48.132;11.608;2022-11-12T04:54:48;8.50;4.70
827;DHT22;395;48.132;11.608;2022-11-12T04:57:14;8.50;4.20
827;DHT22;395;48.132;11.608;2022-11-12T04:59:40;8.50;3.90
827;DHT22;395;48.132;11.608;2022-11-12T05:02:05;8.50;4.20
827;DHT22;395;48.132;11.608;2022-11-12T05:04:31;8.50;4.20
827;DHT22;395;48.132;11.608;2022-11-12T05:06:57;8.50;4.00
827;DHT22;395;48.132;11.608;2022-11-12T05:09:25;8.50;3.40
827;DHT22;395;48.132;11.608;2022-11-12T05:11:52;8.50;3.70
827;DHT22;395;48.132;11.608;2022-11-12T05:14:20;8.50;4.00
827;DHT22;395;48.132;11.608;2022-11-12T05:16:46;8.50;4.20
827;DHT22;395;48.132;11.608;2022-11-12T05:19:12;8.50;4.20
827;DHT22;395;48.132;11.608;2022-11-12T05:21:38;8.40;4.10
827;DHT22;395;48.132;11.608;2022-11-12T05:24:23;8.40;3.90
827;DHT22;395;48.132;11.608;2022-11-12T05:26:49;8.30;4.10
827;DHT22;395;48.132;11.608;2022-11-12T05:29:15;8.30;4.50
827;DHT22;395;48.132;11.608;2022-11-12T05:31:41;8.30;4.40
827;DHT22;395;48.132;11.608;2022-11-12T05:34:07;8.30;5.00
827;DHT22;395;48.132;11.608;2022-11-12T05:36:33;8.20;5.40
827;DHT22;395;48.132;11.608;2022-11-12T05:38:59;8.30;5.80
827;DHT22;395;48.132;11.608;2022-11-12T05:41:24;8.30;5.50
827;DHT22;395;48.132;11.608;2022-11-12T05:43:50;8.20;5.70
827;DHT22;395;48.132;11.608;2022-11-12T05:46:17;8.20;5.80
827;DHT22;395;48.132;11.608;2022-11-12T05:48:43;8.20;6.00
827;DHT22;395;48.132;11.608;2022-11-12T05:51:09;8.20;6.10
827;DHT22;395;48.132;11.608;2022-11-12T05:53:34;8.20;6.30
827;DHT22;395;48.132;11.608;2022-11-12T05:56:04;8.20;6.40
827;DHT22;395;48.132;11.608;2022-11-12T05:58:30;8.20;6.20
827;DHT22;395;48.132;11.608;2022-11-12T06:00:57;8.20;6.00
827;DHT22;395;48.132;11.608;2022-11-12T06:03:23;8.10;6.10
827;DHT22;395;48.132;11.608;2022-11-12T06:05:49;8.20;6.80
827;DHT22;395;48.132;11.608;2022-11-12T06:08:15;8.20;7.20
827;DHT22;395;48.132;11.608;2022-11-12T06:10:41;8.20;7.30
827;DHT22;395;48.132;11.608;2022-11-12T06:13:06;8.20;7.70
827;DHT22;395;48.132;11.608;2022-11-12T06:15:32;8.20;7.90
827;DHT22;395;48.132;11.608;2022-11-12T06:17:58;8.20;8.20
827;DHT22;395;48.132;11.608;2022-11-12T06:20:23;8.20;7.90
827;DHT22;395;48.132;11.608;2022-11-12T06:22:50;8.20;7.60
827;DHT22;395;48.132;11.608;2022-11-12T06:25:16;8.20;7.50
827;DHT22;395;48.132;11.608;2022-11-12T06:27:42;8.20;7.50
827;DHT22;395;48.132;11.608;2022-11-12T06:30:08;8.20;7.80
827;DHT22;395;48.132;11.608;2022-11-12T06:32:34;8.20;7.80
827;DHT22;395;48.132;11.608;2022-11-12T06:35:00;8.20;8.00
827;DHT22;395;48.132;11.608;2022-11-12T06:37:26;8.20;8.30
827;DHT22;395;48.132;11.608;2022-11-12T06:39:51;8.20;8.10
827;DHT22;395;48.132;11.608;2022-11-12T06:42:17;8.20;8.10
827;DHT22;395;48.132;11.608;2022-11-12T06:44:43;8.30;8.00
827;DHT22;395;48.132;11.608;2022-11-12T06:47:10;8.30;7.90
827;DHT22;395;48.132;11.608;2022-11-12T06:49:36;8.30;7.60
827;DHT22;395;48.132;11.608;2022-11-12T06:52:05;8.30;7.50
827;DHT22;395;48.132;11.608;2022-11-12T06:54:30;8.30;7.70
827;DHT22;395;48.132;11.608;2022-11-12T06:56:56;8.30;7.70
827;DHT22;395;48.132;11.608;2022-11-12T06:59:22;8.30;7.30
827;DHT22;395;48.132;11.608;2022-11-12T07:01:47;8.30;7.20
827;DHT22;395;48.132;11.608;2022-11-12T07:04:13;8.20;7.40
827;DHT22;395;48.132;11.608;2022-11-12T07:06:39;8.20;7.40
827;DHT22;395;48.132;11.608;2022-11-12T07:09:05;8.20;8.10
827;DHT22;395;48.132;11.608;2022-11-12T07:11:31;8.20;8.30
827;DHT22;395;48.132;11.608;2022-11-12T07:13:56;8.20;8.10
827;DHT22;395;48.132;11.608;2022-11-12T07:16:22;8.20;7.60
827;DHT22;395;48.132;11.608;2022-11-12T07:18:48;8.20;6.80
827;DHT22;395;48.132;11.608;2022-11-12T07:21:17;8.10;6.70
827;DHT22;395;48.132;11.608;2022-11-12T07:23:44;8.10;6.80
827;DHT22;395;48.132;11.608;2022-11-12T07:26:16;8.10;6.80
827;DHT22;395;48.132;11.608;2022-11-12T07:28:46;8.10;7.10
827;DHT22;395;48.132;11.608;2022-11-12T07:31:13;8.10;7.50
827;DHT22;395;48.132;11.608;2022-11-12T07:33:40;8.10;7.70
827;DHT22;395;48.132;11.608;2022-11-12T07:36:11;8.10;7.80
827;DHT22;395;48.132;11.608;2022-11-12T07:38:38;8.10;8.20
827;DHT22;395;48.132;11.608;2022-11-12T07:41:13;8.10;7.50
827;DHT22;395;48.132;11.608;2022-11-12T07:43:40;8.10;7.50
827;DHT22;395;48.132;11.608;2022-11-12T07:46:10;8.10;7.50
827;DHT22;395;48.132;11.608;2022-11-12T07:48:36;8.20;7.50
827;DHT22;395;48.132;11.608;2022-11-12T07:53:29;8.20;7.40
827;DHT22;395;48.132;11.608;2022-11-12T07:55:56;8.30;7.50
827;DHT22;395;48.132;11.608;2022-11-12T07:58:23;8.20;7.60
827;DHT22;395;48.132;11.608;2022-11-12T08:00:50;8.40;8.00
827;DHT22;395;48.132;11.608;2022-11-12T08:03:16;8.40;8.00
827;DHT22;395;48.132;11.608;2022-11-12T08:05:42;8.50;7.70
827;DHT22;395;48.132;11.608;2022-11-12T08:08:08;8.50;7.60
827;DHT22;395;48.132;11.608;2022-11-12T08:10:33;8.50;7.30
827;DHT22;395;48.132;11.608;2022-11-12T08:12:59;8.50;6.70
827;DHT22;395;48.132;11.608;2022-11-12T08:15:25;8.50;6.80
827;DHT22;395;48.132;11.608;2022-11-12T08:17:51;8.50;7.00
827;DHT22;395;48.132;11.608;2022-11-12T08:20:16;8.50;7.60
827;DHT22;395;48.132;11.608;2022-11-12T08:22:42;8.50;6.90
827;DHT22;395;48.132;11.608;2022-11-12T08:25:08;8.60;7.10
827;DHT22;395;48.132;11.608;2022-11-12T08:27:34;8.60;7.10
827;DHT22;395;48.132;11.608;2022-11-12T08:30:00;8.70;7.20
827;DHT22;395;48.132;11.608;2022-11-12T08:32:26;8.70;7.10
827;DHT22;395;48.132;11.608;2022-11-12T08:34:51;8.70;6.70
827;DHT22;395;48.132;11.608;2022-11-12T08:37:17;8.70;6.60
827;DHT22;395;48.132;11.608;2022-11-12T08:39:43;8.80;6.80
827;DHT22;395;48.132;11.608;2022-11-12T08:42:08;8.80;6.80
827;DHT22;395;48.132;11.608;2022-11-12T08:44:34;8.80;6.70
827;DHT22;395;48.132;11.608;2022-11-12T08:47:00;8.90;6.70
827;DHT22;395;48.132;11.608;2022-11-12T08:49:25;9.00;7.00
827;DHT22;395;48.132;11.608;2022-11-12T08:51:51;9.00;7.00
827;DHT22;395;48.132;11.608;2022-11-12T08:54:17;9.00;6.60
827;DHT22;395;48.132;11.608;2022-11-12T08:56:42;9.10;6.30
827;DHT22;395;48.132;11.608;2022-11-12T08:59:08;9.10;6.30
827;DHT22;395;48.132;11.608;2022-11-12T09:01:34;9.30;6.20
827;DHT22;395;48.132;11.608;2022-11-12T09:03:59;9.20;5.80
827;DHT22;395;48.132;11.608;2022-11-12T09:06:25;9.20;5.80
827;DHT22;395;48.132;11.608;2022-11-12T09:08:51;9.20;6.10
827;DHT22;395;48.132;11.608;2022-11-12T09:11:16;9.20;6.20
827;DHT22;395;48.132;11.608;2022-11-12T09:13:42;9.30;5.90
827;DHT22;395;48.132;11.608;2022-11-12T09:16:09;9.30;5.20
827;DHT22;395;48.132;11.608;2022-11-12T09:18:35;9.30;5.20
827;DHT22;395;48.132;11.608;2022-11-12T09:21:07;9.30;5.60
827;DHT22;395;48.132;11.608;2022-11-12T09:23:33;9.40;6.10
827;DHT22;395;48.132;11.608;2022-11-12T09:26:00;9.40;5.60
827;DHT22;395;48.132;11.608;2022-11-12T09:28:26;9.40;5.40
827;DHT22;395;48.132;11.608;2022-11-12T09:30:53;9.50;5.60
827;DHT22;395;48.132;11.608;2022-11-12T09:33:30;9.50;5.60
827;DHT22;395;48.132;11.608;2022-11-12T09:35:59;9.50;5.70
827;DHT22;395;48.132;11.608;2022-11-12T09:38:25;9.50;5.70
827;DHT22;395;48.132;11.608;2022-11-12T09:45:49;9.80;6.30
827;DHT22;395;48.132;11.608;2022-11-12T09:48:20;9.90;5.50
827;DHT22;395;48.132;11.608;2022-11-12T09:50:59;9.90;5.80
827;DHT22;395;48.132;11.608;2022-11-12T09:56:10;10.00;5.20
827;DHT22;395;48.132;11.608;2022-11-12T09:58:36;10.10;5.10
827;DHT22;395;48.132;11.608;2022-11-12T10:01:13;10.20;5.00
827;DHT22;395;48.132;11.608;2022-11-12T10:09:32;10.30;5.70
827;DHT22;395;48.132;11.608;2022-11-12T10:12:16;10.40;5.70
827;DHT22;395;48.132;11.608;2022-11-12T10:17:54;10.40;5.50
827;DHT22;395;48.132;11.608;2022-11-12T10:23:18;10.50;5.50
827;DHT22;395;48.132;11.608;2022-11-12T10:25:47;10.50;5.60
827;DHT22;395;48.132;11.608;2022-11-12T10:28:33;10.60;5.70
827;DHT22;395;48.132;11.608;2022-11-12T10:31:19;10.60;5.50
827;DHT22;395;48.132;11.608;2022-11-12T10:33:46;10.60;5.50
827;DHT22;395;48.132;11.608;2022-11-12T10:38:47;10.70;5.50
827;DHT22;395;48.132;11.608;2022-11-12T10:41:24;10.70;5.50
827;DHT22;395;48.132;11.608;2022-11-12T10:43:59;10.70;5.30
827;DHT22;395;48.132;11.608;2022-11-12T10:48:58;10.80;5.20
827;DHT22;395;48.132;11.608;2022-11-12T10:51:35;10.80;5.30
827;DHT22;395;48.132;11.608;2022-11-12T10:56:46;10.80;5.30
827;DHT22;395;48.132;11.608;2022-11-12T10:59:24;10.80;5.30
827;DHT22;395;48.132;11.608;2022-11-12T11:01:58;10.80;5.50
827;DHT22;395;48.132;11.608;2022-11-12T11:04:31;10.80;5.40
827;DHT22;395;48.132;11.608;2022-11-12T11:07:14;10.80;5.50
827;DHT22;395;48.132;11.608;2022-11-12T11:09:55;10.80;5.40
827;DHT22;395;48.132;11.608;2022-11-12T11:12:30;10.80;5.30
827;DHT22;395;48.132;11.608;2022-11-12T11:15:17;10.80;5.70
827;DHT22;395;48.132;11.608;2022-11-12T11:17:43;10.80;5.50
827;DHT22;395;48.132;11.608;2022-11-12T11:23:09;10.90;5.40
827;DHT22;395;48.132;11.608;2022-11-12T11:25:38;10.90;5.40
827;DHT22;395;48.132;11.608;2022-11-12T11:28:11;10.90;5.10
827;DHT22;395;48.132;11.608;2022-11-12T11:33:51;10.90;5.00
827;DHT22;395;48.132;11.608;2022-11-12T11:36:40;10.90;5.10
827;DHT22;395;48.132;11.608;2022-11-12T11:42:17;11.00;5.00
827;DHT22;395;48.132;11.608;2022-11-12T11:50:28;11.10;5.40
827;DHT22;395;48.132;11.608;2022-11-12T11:53:25;11.10;5.40
827;DHT22;395;48.132;11.608;2022-11-12T11:56:16;11.10;5.40
827;DHT22;395;48.132;11.608;2022-11-12T12:04:41;11.20;5.20
827;DHT22;395;48.132;11.608;2022-11-12T12:07:40;11.20;5.10
827;DHT22;395;48.132;11.608;2022-11-12T12:13:09;11.20;4.70
827;DHT22;395;48.132;11.608;2022-11-12T12:21:50;11.30;4.40
827;DHT22;395;48.132;11.608;2022-11-12T12:24:42;11.30;4.40
827;DHT22;395;48.132;11.608;2022-11-12T12:27:15;11.30;4.40
827;DHT22;395;48.132;11.608;2022-11-12T12:29:56;11.30;4.40
827;DHT22;395;48.132;11.608;2022-11-12T12:32:36;11.30;4.40
827;DHT22;395;48.132;11.608;2022-11-12T12:35:12;11.30;4.40
827;DHT22;395;48.132;11.608;2022-11-12T12:41:08;11.30;4.40
827;DHT22;395;48.132;11.608;2022-11-12T12:43:36;11.30;4.40
827;DHT22;395;48.132;11.608;2022-11-12T12:46:03;11.40;4.50
827;DHT22;395;48.132;11.608;2022-11-12T12:48:34;11.40;4.50
827;DHT22;395;48.132;11.608;2022-11-12T12:51:02;11.40;4.50
827;DHT22;395;48.132;11.608;2022-11-12T12:56:05;11.40;4.50
827;DHT22;395;48.132;11.608;2022-11-12T12:58:38;11.40;4.50
827;DHT22;395;48.132;11.608;2022-11-12T13:17:02;11.40;4.50
827;DHT22;395;48.132;11.608;2022-11-12T13:19:35;11.40;4.50
827;DHT22;395;48.132;11.608;2022-11-12T13:35:30;11.50;5.00
827;DHT22;395;48.132;11.608;2022-11-12T13:43:16;11.50;4.90
827;DHT22;395;48.132;11.608;2022-11-12T13:48:23;11.50;5.00
827;DHT22;395;48.132;11.608;2022-11-12T13:51:03;11.50;5.20
827;DHT22;395;48.132;11.608;2022-11-12T13:53:31;11.50;5.10
827;DHT22;395;48.132;11.608;2022-11-12T13:55:57;11.50;5.20
827;DHT22;395;48.132;11.608;2022-11-12T13:58:31;11.40;5.30
827;DHT22;395;48.132;11.608;2022-11-12T14:00:59;11.50;5.40
827;DHT22;395;48.132;11.608;2022-11-12T14:03:35;11.50;5.80
827;DHT22;395;48.132;11.608;2022-11-12T14:06:34;11.40;5.50
827;DHT22;395;48.132;11.608;2022-11-12T14:20:12;11.40;6.00
827;DHT22;395;48.132;11.608;2022-11-12T14:22:45;11.40;5.80
827;DHT22;395;48.132;11.608;2022-11-12T14:25:25;11.40;5.90
827;DHT22;395;48.132;11.608;2022-11-12T14:27:52;11.30;6.00
827;DHT22;395;48.132;11.608;2022-11-12T14:32:56;11.30;6.20
827;DHT22;395;48.132;11.608;2022-11-12T14:40:41;11.20;6.20
827;DHT22;395;48.132;11.608;2022-11-12T14:43:22;11.20;6.40
827;DHT22;395;48.132;11.608;2022-11-12T14:45:50;11.10;6.50
827;DHT22;395;48.132;11.608;2022-11-12T14:48:17;11.10;7.10
827;DHT22;395;48.132;11.608;2022-11-12T14:50:45;11.00;7.50
827;DHT22;395;48.132;11.608;2022-11-12T14:53:34;11.00;7.70
827;DHT22;395;48.132;11.608;2022-11-12T14:56:03;10.90;8.00
827;DHT22;395;48.132;11.608;2022-11-12T14:58:31;10.90;8.80
827;DHT22;395;48.132;11.608;2022-11-12T15:00:58;10.90;8.90
827;DHT22;395;48.132;11.608;2022-11-12T15:03:41;10.90;9.20
827;DHT22;395;48.132;11.608;2022-11-12T15:06:09;10.90;9.20
827;DHT22;395;48.132;11.608;2022-11-12T15:08:39;10.80;9.60
827;DHT22;395;48.132;11.608;2022-11-12T15:13:46;10.60;10.10
827;DHT22;395;48.132;11.608;2022-11-12T15:16:19;10.60;10.30
827;DHT22;395;48.132;11.608;2022-11-12T15:21:28;10.50;10.80
827;DHT22;395;48.132;11.608;2022-11-12T15:26:42;10.50;11.20
827;DHT22;395;48.132;11.608;2022-11-12T15:29:31;10.50;11.30
827;DHT22;395;48.132;11.608;2022-11-12T15:34:49;10.50;11.30
827;DHT22;395;48.132;11.608;2022-11-12T15:37:21;10.50;11.30
827;DHT22;395;48.132;11.608;2022-11-12T15:39:54;10.40;11.20
827;DHT22;395;48.132;11.608;2022-11-12T15:42:26;10.40;11.30
827;DHT22;395;48.132;11.608;2022-11-12T15:47:40;10.40;11.90
827;DHT22;395;48.132;11.608;2022-11-12T15:52:38;10.30;12.50
827;DHT22;395;48.132;11.608;2022-11-12T15:55:04;10.40;12.80
827;DHT22;395;48.132;11.608;2022-11-12T15:57:32;10.30;12.90
827;DHT22;395;48.132;11.608;2022-11-12T16:00:08;10.30;12.80
827;DHT22;395;48.132;11.608;2022-11-12T16:02:34;10.30;13.50
827;DHT22;395;48.132;11.608;2022-11-12T16:05:00;10.30;13.10
827;DHT22;395;48.132;11.608;2022-11-12T16:07:26;10.30;13.30
827;DHT22;395;48.132;11.608;2022-11-12T16:09:52;10.30;14.40
827;DHT22;395;48.132;11.608;2022-11-12T16:12:18;10.20;14.30
827;DHT22;395;48.132;11.608;2022-11-12T16:14:44;10.20;14.70
827;DHT22;395;48.132;11.608;2022-11-12T16:17:14;10.20;14.70
827;DHT22;395;48.132;11.608;2022-11-12T16:19:41;10.30;14.80
827;DHT22;395;48.132;11.608;2022-11-12T16:22:07;10.20;14.70
827;DHT22;395;48.132;11.608;2022-11-12T16:24:40;10.20;14.70
827;DHT22;395;48.132;11.608;2022-11-12T16:27:13;10.20;14.50
827;DHT22;395;48.132;11.608;2022-11-12T16:29:39;10.20;14.70
827;DHT22;395;48.132;11.608;2022-11-12T16:32:05;10.10;15.00
827;DHT22;395;48.132;11.608;2022-11-12T16:34:31;10.10;15.10
827;DHT22;395;48.132;11.608;2022-11-12T16:36:57;10.00;14.80
827;DHT22;395;48.132;11.608;2022-11-12T16:39:23;10.00;15.00
827;DHT22;395;48.132;11.608;2022-11-12T16:41:49;10.00;15.10
827;DHT22;395;48.132;11.608;2022-11-12T16:44:15;10.00;15.20
827;DHT22;395;48.132;11.608;2022-11-12T16:46:40;10.00;15.20
827;DHT22;395;48.132;11.608;2022-11-12T16:49:15;10.00;15.40
827;DHT22;395;48.132;11.608;2022-11-12T16:51:41;10.00;15.30
827;DHT22;395;48.132;11.608;2022-11-12T16:54:07;10.00;15.40
827;DHT22;395;48.132;11.608;2022-11-12T16:56:33;10.00;15.30
827;DHT22;395;48.132;11.608;2022-11-12T16:59:00;10.00;15.30
827;DHT22;395;48.132;11.608;2022-11-12T17:01:28;9.90;15.90
827;DHT22;395;48.132;11.608;2022-11-12T17:03:55;9.90;16.00
827;DHT22;395;48.132;11.608;2022-11-12T17:06:23;9.90;16.20
827;DHT22;395;48.132;11.608;2022-11-12T17:08:52;9.90;16.40
827;DHT22;395;48.132;11.608;2022-11-12T17:11:18;9.90;16.90
827;DHT22;395;48.132;11.608;2022-11-12T17:13:44;9.90;16.60
827;DHT22;395;48.132;11.608;2022-11-12T17:16:10;9.90;16.60
827;DHT22;395;48.132;11.608;2022-11-12T17:18:36;9.90;16.70
827;DHT22;395;48.132;11.608;2022-11-12T17:21:13;9.90;16.90
827;DHT22;395;48.132;11.608;2022-11-12T17:23:40;9.90;16.80
827;DHT22;395;48.132;11.608;2022-11-12T17:26:10;9.90;16.90
827;DHT22;395;48.132;11.608;2022-11-12T17:28:37;9.90;16.80
827;DHT22;395;48.132;11.608;2022-11-12T17:33:31;9.90;17.10
827;DHT22;395;48.132;11.608;2022-11-12T17:36:01;9.90;17.10
827;DHT22;395;48.132;11.608;2022-11-12T17:38:28;9.90;17.10
827;DHT22;395;48.132;11.608;2022-11-12T17:40:55;9.90;17.10
827;DHT22;395;48.132;11.608;2022-11-12T17:43:21;9.90;16.80
827;DHT22;395;48.132;11.608;2022-11-12T17:45:49;9.80;16.80
827;DHT22;395;48.132;11.608;2022-11-12T17:48:15;9.80;17.10
827;DHT22;395;48.132;11.608;2022-11-12T17:50:40;9.80;17.20
827;DHT22;395;48.132;11.608;2022-11-12T17:53:06;9.80;17.30
827;DHT22;395;48.132;11.608;2022-11-12T17:55:31;9.80;17.40
827;DHT22;395;48.132;11.608;2022-11-12T17:57:57;9.80;17.50
827;DHT22;395;48.132;11.608;2022-11-12T18:00:23;9.80;17.50
827;DHT22;395;48.132;11.608;2022-11-12T18:02:49;9.80;17.50
827;DHT22;395;48.132;11.608;2022-11-12T18:05:16;9.80;17.50
827;DHT22;395;48.132;11.608;2022-11-12T18:07:42;9.80;17.60
827;DHT22;395;48.132;11.608;2022-11-12T18:10:08;9.80;17.70
827;DHT22;395;48.132;11.608;2022-11-12T18:12:33;9.80;17.80
827;DHT22;395;48.132;11.608;2022-11-12T18:14:59;9.80;18.10
827;DHT22;395;48.132;11.608;2022-11-12T18:17:24;9.80;18.50
827;DHT22;395;48.132;11.608;2022-11-12T18:19:50;9.80;18.40
827;DHT22;395;48.132;11.608;2022-11-12T18:22:16;9.80;18.50
827;DHT22;395;48.132;11.608;2022-11-12T18:24:43;9.80;18.20
827;DHT22;395;48.132;11.608;2022-11-12T18:27:09;9.80;18.20
827;DHT22;395;48.132;11.608;2022-11-12T18:29:35;9.80;18.40
827;DHT22;395;48.132;11.608;2022-11-12T18:32:00;9.80;18.10
827;DHT22;395;48.132;11.608;2022-11-12T18:34:27;9.80;17.80
827;DHT22;395;48.132;11.608;2022-11-12T18:36:53;9.80;17.90
827;DHT22;395;48.132;11.608;2022-11-12T18:39:19;9.80;17.90
827;DHT22;395;48.132;11.608;2022-11-12T18:41:44;9.80;17.60
827;DHT22;395;48.132;11.608;2022-11-12T18:44:10;9.80;17.20
827;DHT22;395;48.132;11.608;2022-11-12T18:46:36;9.80;17.00
827;DHT22;395;48.132;11.608;2022-11-12T18:49:01;9.80;16.60
827;DHT22;395;48.132;11.608;2022-11-12T18:51:27;9.80;16.50
827;DHT22;395;48.132;11.608;2022-11-12T18:53:53;9.80;16.40
827;DHT22;395;48.132;11.608;2022-11-12T18:56:19;9.70;16.30
827;DHT22;395;48.132;11.608;2022-11-12T18:58:47;9.70;16.30
827;DHT22;395;48.132;11.608;2022-11-12T19:01:15;9.70;16.10
827;DHT22;395;48.132;11.608;2022-11-12T19:03:41;9.70;15.90
827;DHT22;395;48.132;11.608;2022-11-12T19:06:07;9.60;15.80
827;DHT22;395;48.132;11.608;2022-11-12T19:08:35;9.60;15.90
827;DHT22;395;48.132;11.608;2022-11-12T19:11:04;9.60;16.10
827;DHT22;395;48.132;11.608;2022-11-12T19:13:31;9.60;16.10
827;DHT22;395;48.132;11.608;2022-11-12T19:16:08;9.70;16.20